sensor_id;sensor_type;location;lat;lon;timestamp;P1;durP1;ratioP1;P2;durP2;ratioP2
140;SDS011;65;48.778;9.160;2023-04-06T00:02:01;14.60;;;7.28;;
140;SDS011;65;48.778;9.160;2023-04-06T00:04:47;14.63;;;7.55;;
140;SDS011;65;48.778;9.160;2023-04-06T00:07:33;12.37;;;7.13;;
140;SDS011;65;48.778;9.160;2023-04-06T00:10:19;12.30;;;6.80;;
140;SDS011;65;48.778;9.160;2023-04-06T00:13:06;14.13;;;7.07;;
140;SDS011;65;48.778;9.160;2023-04-06T00:15:52;14.17;;;7.20;;
140;SDS011;65;48.778;9.160;2023-04-06T00:18:38;15.43;;;7.73;;
140;SDS011;65;48.778;9.160;2023-04-06T00:21:24;12.63;;;7.63;;
140;SDS011;65;48.778;9.160;2023-04-06T00:24:11;13.00;;;8.32;;
140;SDS011;65;48.778;9.160;2023-04-06T00:26:56;12.70;;;7.53;;
140;SDS011;65;48.778;9.160;2023-04-06T00:29:43;12.10;;;7.10;;
140;SDS011;65;48.778;9.160;2023-04-06T00:32:29;14.47;;;8.00;;
140;SDS011;65;48.778;9.160;2023-04-06T00:35:16;15.68;;;8.38;;
140;SDS011;65;48.778;9.160;2023-04-06T00:38:01;13.87;;;7.97;;
140;SDS011;65;48.778;9.160;2023-04-06T00:40:47;12.57;;;7.27;;
140;SDS011;65;48.778;9.160;2023-04-06T00:43:33;13.07;;;7.88;;
140;SDS011;65;48.778;9.160;2023-04-06T00:46:19;12.77;;;7.43;;
140;SDS011;65;48.778;9.160;2023-04-06T00:49:05;13.25;;;7.68;;
140;SDS011;65;48.778;9.160;2023-04-06T00:51:50;16.40;;;7.97;;
140;SDS011;65;48.778;9.160;2023-04-06T00:54:36;15.73;;;8.13;;
140;SDS011;65;48.778;9.160;2023-04-06T00:57:22;16.05;;;7.50;;
140;SDS011;65;48.778;9.160;2023-04-06T01:00:08;13.02;;;7.55;;
140;SDS011;65;48.778;9.160;2023-04-06T01:02:54;13.88;;;8.18;;
140;SDS011;65;48.778;9.160;2023-04-06T01:05:40;15.67;;;8.20;;
140;SDS011;65;48.778;9.160;2023-04-06T01:08:26;13.57;;;7.37;;
140;SDS011;65;48.778;9.160;2023-04-06T01:11:12;12.68;;;7.43;;
140;SDS011;65;48.778;9.160;2023-04-06T01:13:58;11.90;;;7.67;;
140;SDS011;65;48.778;9.160;2023-04-06T01:16:43;14.13;;;7.50;;
140;SDS011;65;48.778;9.160;2023-04-06T01:19:29;12.63;;;6.50;;
140;SDS011;65;48.778;9.160;2023-04-06T01:22:16;14.15;;;7.00;;
140;SDS011;65;48.778;9.160;2023-04-06T01:25:02;12.45;;;6.78;;
140;SDS011;65;48.778;9.160;2023-04-06T01:27:48;12.00;;;7.10;;
140;SDS011;65;48.778;9.160;2023-04-06T01:30:33;13.00;;;7.10;;
140;SDS011;65;48.778;9.160;2023-04-06T01:33:19;11.52;;;6.95;;
140;SDS011;65;48.778;9.160;2023-04-06T01:36:05;11.57;;;7.10;;
140;SDS011;65;48.778;9.160;2023-04-06T01:38:51;13.67;;;6.73;;
140;SDS011;65;48.778;9.160;2023-04-06T01:41:37;11.68;;;6.97;;
140;SDS011;65;48.778;9.160;2023-04-06T01:44:37;11.53;;;7.40;;
140;SDS011;65;48.778;9.160;2023-04-06T01:47:23;14.37;;;7.60;;
140;SDS011;65;48.778;9.160;2023-04-06T01:50:08;14.93;;;8.07;;
140;SDS011;65;48.778;9.160;2023-04-06T01:52:55;14.65;;;8.00;;
140;SDS011;65;48.778;9.160;2023-04-06T01:55:40;12.17;;;7.13;;
140;SDS011;65;48.778;9.160;2023-04-06T02:01:41;11.47;;;7.40;;
140;SDS011;65;48.778;9.160;2023-04-06T02:04:26;13.43;;;7.30;;
140;SDS011;65;48.778;9.160;2023-04-06T02:07:12;12.10;;;7.47;;
140;SDS011;65;48.778;9.160;2023-04-06T02:09:58;13.00;;;7.33;;
140;SDS011;65;48.778;9.160;2023-04-06T02:12:44;12.27;;;7.43;;
140;SDS011;65;48.778;9.160;2023-04-06T02:15:29;14.00;;;8.20;;
140;SDS011;65;48.778;9.160;2023-04-06T02:18:15;13.00;;;8.20;;
140;SDS011;65;48.778;9.160;2023-04-06T02:21:02;14.48;;;8.27;;
140;SDS011;65;48.778;9.160;2023-04-06T02:23:48;19.93;;;8.77;;
140;SDS011;65;48.778;9.160;2023-04-06T02:26:34;15.23;;;8.93;;
140;SDS011;65;48.778;9.160;2023-04-06T02:29:20;12.97;;;8.10;;
140;SDS011;65;48.778;9.160;2023-04-06T02:32:06;13.53;;;8.10;;
140;SDS011;65;48.778;9.160;2023-04-06T02:34:52;15.60;;;8.03;;
140;SDS011;65;48.778;9.160;2023-04-06T02:37:38;17.60;;;8.73;;
140;SDS011;65;48.778;9.160;2023-04-06T02:40:24;14.43;;;8.87;;
140;SDS011;65;48.778;9.160;2023-04-06T02:43:09;14.93;;;8.10;;
140;SDS011;65;48.778;9.160;2023-04-06T02:45:55;14.03;;;8.00;;
140;SDS011;65;48.778;9.160;2023-04-06T02:48:41;13.37;;;7.93;;
140;SDS011;65;48.778;9.160;2023-04-06T02:51:27;13.37;;;7.37;;
140;SDS011;65;48.778;9.160;2023-04-06T02:54:13;16.03;;;7.53;;
140;SDS011;65;48.778;9.160;2023-04-06T02:56:59;13.13;;;6.87;;
140;SDS011;65;48.778;9.160;2023-04-06T02:59:44;13.23;;;7.87;;
140;SDS011;65;48.778;9.160;2023-04-06T03:02:30;12.97;;;8.10;;
140;SDS011;65;48.778;9.160;2023-04-06T03:05:16;12.32;;;7.63;;
140;SDS011;65;48.778;9.160;2023-04-06T03:08:02;12.83;;;7.90;;
140;SDS011;65;48.778;9.160;2023-04-06T03:10:47;13.80;;;8.17;;
140;SDS011;65;48.778;9.160;2023-04-06T03:13:33;11.90;;;7.23;;
140;SDS011;65;48.778;9.160;2023-04-06T03:16:19;15.63;;;8.03;;
140;SDS011;65;48.778;9.160;2023-04-06T03:19:05;13.23;;;7.23;;
140;SDS011;65;48.778;9.160;2023-04-06T03:21:51;13.30;;;7.57;;
140;SDS011;65;48.778;9.160;2023-04-06T03:24:36;12.33;;;7.53;;
140;SDS011;65;48.778;9.160;2023-04-06T03:27:22;14.93;;;8.10;;
140;SDS011;65;48.778;9.160;2023-04-06T03:30:08;13.23;;;8.63;;
140;SDS011;65;48.778;9.160;2023-04-06T03:32:54;15.13;;;9.17;;
140;SDS011;65;48.778;9.160;2023-04-06T03:35:40;14.73;;;9.23;;
140;SDS011;65;48.778;9.160;2023-04-06T03:38:25;13.43;;;8.53;;
140;SDS011;65;48.778;9.160;2023-04-06T03:41:11;14.97;;;8.77;;
140;SDS011;65;48.778;9.160;2023-04-06T03:43:57;17.30;;;9.23;;
140;SDS011;65;48.778;9.160;2023-04-06T03:46:43;14.60;;;8.17;;
140;SDS011;65;48.778;9.160;2023-04-06T03:49:28;14.10;;;8.87;;
140;SDS011;65;48.778;9.160;2023-04-06T03:52:14;15.73;;;9.00;;
140;SDS011;65;48.778;9.160;2023-04-06T03:55:00;14.10;;;8.80;;
140;SDS011;65;48.778;9.160;2023-04-06T03:57:46;16.63;;;9.13;;
140;SDS011;65;48.778;9.160;2023-04-06T04:00:31;14.17;;;9.40;;
140;SDS011;65;48.778;9.160;2023-04-06T04:03:18;15.47;;;8.80;;
140;SDS011;65;48.778;9.160;2023-04-06T04:06:04;19.20;;;9.40;;
140;SDS011;65;48.778;9.160;2023-04-06T04:08:49;13.70;;;9.07;;
140;SDS011;65;48.778;9.160;2023-04-06T04:11:35;20.03;;;9.83;;
140;SDS011;65;48.778;9.160;2023-04-06T04:14:21;15.47;;;9.90;;
140;SDS011;65;48.778;9.160;2023-04-06T04:17:07;14.70;;;9.47;;
140;SDS011;65;48.778;9.160;2023-04-06T04:19:52;16.20;;;9.80;;
140;SDS011;65;48.778;9.160;2023-04-06T04:22:38;15.97;;;9.13;;
140;SDS011;65;48.778;9.160;2023-04-06T04:25:24;17.03;;;9.47;;
140;SDS011;65;48.778;9.160;2023-04-06T04:28:09;18.33;;;10.10;;
140;SDS011;65;48.778;9.160;2023-04-06T04:30:55;16.60;;;9.30;;
140;SDS011;65;48.778;9.160;2023-04-06T04:33:41;17.13;;;9.77;;
140;SDS011;65;48.778;9.160;2023-04-06T04:36:27;15.40;;;9.37;;
140;SDS011;65;48.778;9.160;2023-04-06T04:39:12;15.20;;;9.83;;
140;SDS011;65;48.778;9.160;2023-04-06T04:41:58;16.23;;;9.50;;
140;SDS011;65;48.778;9.160;2023-04-06T04:44:44;16.20;;;10.07;;
140;SDS011;65;48.778;9.160;2023-04-06T04:47:30;17.87;;;10.43;;
140;SDS011;65;48.778;9.160;2023-04-06T04:50:15;15.57;;;9.27;;
140;SDS011;65;48.778;9.160;2023-04-06T04:53:02;16.07;;;9.63;;
140;SDS011;65;48.778;9.160;2023-04-06T04:55:50;16.03;;;9.57;;
140;SDS011;65;48.778;9.160;2023-04-06T04:58:36;16.63;;;9.40;;
140;SDS011;65;48.778;9.160;2023-04-06T05:01:22;16.43;;;9.60;;
140;SDS011;65;48.778;9.160;2023-04-06T05:04:08;16.63;;;9.63;;
140;SDS011;65;48.778;9.160;2023-04-06T05:07:06;15.03;;;8.77;;
140;SDS011;65;48.778;9.160;2023-04-06T05:09:53;16.13;;;9.17;;
140;SDS011;65;48.778;9.160;2023-04-06T05:12:39;16.73;;;9.33;;
140;SDS011;65;48.778;9.160;2023-04-06T05:15:25;15.37;;;8.97;;
140;SDS011;65;48.778;9.160;2023-04-06T05:18:12;15.70;;;9.23;;
140;SDS011;65;48.778;9.160;2023-04-06T05:20:58;16.60;;;9.57;;
140;SDS011;65;48.778;9.160;2023-04-06T05:23:44;15.97;;;9.20;;
140;SDS011;65;48.778;9.160;2023-04-06T05:26:29;15.83;;;9.40;;
140;SDS011;65;48.778;9.160;2023-04-06T05:29:15;17.57;;;9.60;;
140;SDS011;65;48.778;9.160;2023-04-06T05:32:02;16.43;;;9.27;;
140;SDS011;65;48.778;9.160;2023-04-06T05:34:48;16.20;;;8.77;;
140;SDS011;65;48.778;9.160;2023-04-06T05:37:35;17.48;;;9.50;;
140;SDS011;65;48.778;9.160;2023-04-06T05:40:20;14.70;;;9.60;;
140;SDS011;65;48.778;9.160;2023-04-06T05:43:07;18.20;;;9.93;;
140;SDS011;65;48.778;9.160;2023-04-06T05:45:53;18.33;;;10.48;;
140;SDS011;65;48.778;9.160;2023-04-06T05:48:39;15.80;;;9.50;;
140;SDS011;65;48.778;9.160;2023-04-06T05:51:25;15.25;;;9.68;;
140;SDS011;65;48.778;9.160;2023-04-06T05:54:12;19.80;;;9.97;;
140;SDS011;65;48.778;9.160;2023-04-06T05:56:57;19.83;;;10.48;;
140;SDS011;65;48.778;9.160;2023-04-06T05:59:43;17.58;;;10.73;;
140;SDS011;65;48.778;9.160;2023-04-06T06:02:32;21.52;;;10.52;;
140;SDS011;65;48.778;9.160;2023-04-06T06:05:18;23.87;;;11.77;;
140;SDS011;65;48.778;9.160;2023-04-06T06:08:03;25.27;;;10.43;;
140;SDS011;65;48.778;9.160;2023-04-06T06:10:49;22.05;;;11.75;;
140;SDS011;65;48.778;9.160;2023-04-06T06:13:35;20.85;;;10.88;;
140;SDS011;65;48.778;9.160;2023-04-06T06:16:21;24.67;;;11.70;;
140;SDS011;65;48.778;9.160;2023-04-06T06:19:07;22.00;;;11.70;;
140;SDS011;65;48.778;9.160;2023-04-06T06:21:53;21.13;;;12.15;;
140;SDS011;65;48.778;9.160;2023-04-06T06:24:39;19.63;;;11.67;;
140;SDS011;65;48.778;9.160;2023-04-06T06:27:24;17.20;;;10.88;;
140;SDS011;65;48.778;9.160;2023-04-06T06:30:10;19.98;;;11.45;;
140;SDS011;65;48.778;9.160;2023-04-06T06:32:56;18.75;;;11.73;;
140;SDS011;65;48.778;9.160;2023-04-06T06:35:42;22.02;;;11.35;;
140;SDS011;65;48.778;9.160;2023-04-06T06:38:28;23.52;;;11.52;;
140;SDS011;65;48.778;9.160;2023-04-06T06:41:14;20.98;;;11.25;;
140;SDS011;65;48.778;9.160;2023-04-06T06:43:59;19.83;;;11.60;;
140;SDS011;65;48.778;9.160;2023-04-06T06:46:45;25.83;;;13.50;;
140;SDS011;65;48.778;9.160;2023-04-06T06:49:31;19.35;;;11.63;;
140;SDS011;65;48.778;9.160;2023-04-06T06:52:17;18.75;;;10.27;;
140;SDS011;65;48.778;9.160;2023-04-06T06:55:02;19.20;;;10.98;;
140;SDS011;65;48.778;9.160;2023-04-06T06:57:48;19.40;;;10.52;;
140;SDS011;65;48.778;9.160;2023-04-06T07:00:34;19.55;;;10.98;;
140;SDS011;65;48.778;9.160;2023-04-06T07:03:20;18.23;;;11.50;;
140;SDS011;65;48.778;9.160;2023-04-06T07:06:06;21.05;;;10.90;;
140;SDS011;65;48.778;9.160;2023-04-06T07:08:52;16.42;;;11.15;;
140;SDS011;65;48.778;9.160;2023-04-06T07:11:37;22.15;;;10.93;;
140;SDS011;65;48.778;9.160;2023-04-06T07:14:23;17.15;;;10.40;;
140;SDS011;65;48.778;9.160;2023-04-06T07:17:09;17.27;;;10.45;;
140;SDS011;65;48.778;9.160;2023-04-06T07:19:55;18.77;;;10.70;;
140;SDS011;65;48.778;9.160;2023-04-06T07:22:42;20.10;;;11.63;;
140;SDS011;65;48.778;9.160;2023-04-06T07:25:29;23.13;;;11.05;;
140;SDS011;65;48.778;9.160;2023-04-06T07:28:15;21.45;;;12.18;;
140;SDS011;65;48.778;9.160;2023-04-06T07:31:01;18.65;;;11.70;;
140;SDS011;65;48.778;9.160;2023-04-06T07:33:47;21.17;;;11.45;;
140;SDS011;65;48.778;9.160;2023-04-06T07:36:32;20.40;;;12.23;;
140;SDS011;65;48.778;9.160;2023-04-06T07:39:18;20.15;;;11.25;;
140;SDS011;65;48.778;9.160;2023-04-06T07:42:04;19.58;;;11.00;;
140;SDS011;65;48.778;9.160;2023-04-06T07:48:27;20.13;;;11.00;;
140;SDS011;65;48.778;9.160;2023-04-06T07:51:12;18.25;;;10.48;;
140;SDS011;65;48.778;9.160;2023-04-06T07:54:00;16.65;;;10.52;;
140;SDS011;65;48.778;9.160;2023-04-06T07:56:45;18.17;;;11.57;;
140;SDS011;65;48.778;9.160;2023-04-06T07:59:31;18.45;;;11.55;;
140;SDS011;65;48.778;9.160;2023-04-06T08:02:17;16.77;;;11.20;;
140;SDS011;65;48.778;9.160;2023-04-06T08:05:03;17.65;;;11.50;;
140;SDS011;65;48.778;9.160;2023-04-06T08:07:49;18.98;;;10.68;;
140;SDS011;65;48.778;9.160;2023-04-06T08:10:35;18.75;;;11.20;;
140;SDS011;65;48.778;9.160;2023-04-06T08:13:21;19.13;;;11.27;;
140;SDS011;65;48.778;9.160;2023-04-06T08:16:07;19.15;;;11.27;;
140;SDS011;65;48.778;9.160;2023-04-06T08:18:52;22.13;;;11.48;;
140;SDS011;65;48.778;9.160;2023-04-06T08:21:38;16.02;;;10.45;;
140;SDS011;65;48.778;9.160;2023-04-06T08:24:25;17.10;;;11.00;;
140;SDS011;65;48.778;9.160;2023-04-06T08:27:11;19.25;;;10.65;;
140;SDS011;65;48.778;9.160;2023-04-06T08:30:00;19.83;;;10.98;;
140;SDS011;65;48.778;9.160;2023-04-06T08:32:45;17.00;;;11.10;;
140;SDS011;65;48.778;9.160;2023-04-06T08:35:31;18.27;;;11.73;;
140;SDS011;65;48.778;9.160;2023-04-06T08:38:17;15.80;;;10.93;;
140;SDS011;65;48.778;9.160;2023-04-06T08:41:09;17.55;;;11.27;;
140;SDS011;65;48.778;9.160;2023-04-06T08:43:56;19.08;;;10.95;;
140;SDS011;65;48.778;9.160;2023-04-06T08:46:43;24.52;;;11.82;;
140;SDS011;65;48.778;9.160;2023-04-06T08:49:29;18.92;;;11.45;;
140;SDS011;65;48.778;9.160;2023-04-06T08:52:17;19.90;;;12.23;;
140;SDS011;65;48.778;9.160;2023-04-06T08:55:04;19.88;;;11.43;;
140;SDS011;65;48.778;9.160;2023-04-06T08:57:50;18.33;;;11.05;;
140;SDS011;65;48.778;9.160;2023-04-06T09:00:40;15.15;;;10.52;;
140;SDS011;65;48.778;9.160;2023-04-06T09:03:26;17.63;;;10.38;;
140;SDS011;65;48.778;9.160;2023-04-06T09:06:14;18.63;;;10.77;;
140;SDS011;65;48.778;9.160;2023-04-06T09:09:13;14.00;;;9.98;;
140;SDS011;65;48.778;9.160;2023-04-06T09:12:36;13.13;;;9.32;;
140;SDS011;65;48.778;9.160;2023-04-06T09:15:22;14.50;;;10.43;;
140;SDS011;65;48.778;9.160;2023-04-06T09:18:08;18.27;;;10.52;;
140;SDS011;65;48.778;9.160;2023-04-06T09:21:01;16.65;;;10.88;;
140;SDS011;65;48.778;9.160;2023-04-06T09:23:59;14.40;;;9.73;;
140;SDS011;65;48.778;9.160;2023-04-06T09:26:46;14.68;;;9.88;;
140;SDS011;65;48.778;9.160;2023-04-06T09:29:32;15.55;;;9.68;;
140;SDS011;65;48.778;9.160;2023-04-06T09:32:18;16.83;;;9.70;;
140;SDS011;65;48.778;9.160;2023-04-06T09:35:07;15.43;;;9.95;;
140;SDS011;65;48.778;9.160;2023-04-06T09:37:54;19.45;;;10.30;;
140;SDS011;65;48.778;9.160;2023-04-06T09:40:48;18.30;;;10.30;;
140;SDS011;65;48.778;9.160;2023-04-06T09:43:41;15.75;;;10.32;;
140;SDS011;65;48.778;9.160;2023-04-06T09:46:27;15.27;;;10.43;;
140;SDS011;65;48.778;9.160;2023-04-06T09:49:21;14.18;;;9.15;;
140;SDS011;65;48.778;9.160;2023-04-06T09:52:08;15.80;;;9.13;;
140;SDS011;65;48.778;9.160;2023-04-06T09:55:02;14.27;;;9.32;;
140;SDS011;65;48.778;9.160;2023-04-06T09:57:50;14.65;;;9.27;;
140;SDS011;65;48.778;9.160;2023-04-06T10:00:51;13.32;;;9.27;;
140;SDS011;65;48.778;9.160;2023-04-06T10:06:49;13.68;;;9.25;;
140;SDS011;65;48.778;9.160;2023-04-06T10:09:37;12.38;;;8.13;;
140;SDS011;65;48.778;9.160;2023-04-06T10:12:23;13.48;;;8.73;;
140;SDS011;65;48.778;9.160;2023-04-06T10:15:09;13.93;;;8.18;;
140;SDS011;65;48.778;9.160;2023-04-06T10:17:56;11.90;;;8.57;;
140;SDS011;65;48.778;9.160;2023-04-06T10:20:47;12.63;;;8.57;;
140;SDS011;65;48.778;9.160;2023-04-06T10:23:39;11.40;;;8.60;;
140;SDS011;65;48.778;9.160;2023-04-06T10:26:37;13.02;;;8.35;;
140;SDS011;65;48.778;9.160;2023-04-06T10:29:25;11.52;;;7.88;;
140;SDS011;65;48.778;9.160;2023-04-06T10:32:11;13.73;;;7.93;;
140;SDS011;65;48.778;9.160;2023-04-06T10:35:04;13.98;;;8.27;;
140;SDS011;65;48.778;9.160;2023-04-06T10:38:03;10.50;;;7.80;;
140;SDS011;65;48.778;9.160;2023-04-06T10:40:50;11.65;;;7.93;;
140;SDS011;65;48.778;9.160;2023-04-06T10:43:37;12.45;;;7.82;;
140;SDS011;65;48.778;9.160;2023-04-06T10:46:28;11.65;;;7.70;;
140;SDS011;65;48.778;9.160;2023-04-06T10:49:15;9.68;;;7.15;;
140;SDS011;65;48.778;9.160;2023-04-06T10:52:01;9.82;;;6.97;;
140;SDS011;65;48.778;9.160;2023-04-06T10:54:46;10.45;;;6.97;;
140;SDS011;65;48.778;9.160;2023-04-06T10:57:42;11.05;;;7.53;;
140;SDS011;65;48.778;9.160;2023-04-06T11:00:59;11.02;;;7.60;;
140;SDS011;65;48.778;9.160;2023-04-06T11:03:46;10.70;;;6.75;;
140;SDS011;65;48.778;9.160;2023-04-06T11:06:33;10.38;;;7.45;;
140;SDS011;65;48.778;9.160;2023-04-06T11:09:25;10.82;;;7.35;;
140;SDS011;65;48.778;9.160;2023-04-06T11:12:25;9.95;;;7.10;;
140;SDS011;65;48.778;9.160;2023-04-06T11:15:13;10.55;;;6.80;;
140;SDS011;65;48.778;9.160;2023-04-06T11:17:58;9.70;;;6.93;;
140;SDS011;65;48.778;9.160;2023-04-06T11:20:49;11.68;;;6.93;;
140;SDS011;65;48.778;9.160;2023-04-06T11:23:34;10.80;;;6.57;;
140;SDS011;65;48.778;9.160;2023-04-06T11:26:36;10.13;;;7.07;;
140;SDS011;65;48.778;9.160;2023-04-06T11:29:33;12.25;;;6.95;;
140;SDS011;65;48.778;9.160;2023-04-06T11:32:22;9.75;;;6.90;;
140;SDS011;65;48.778;9.160;2023-04-06T11:35:19;9.13;;;6.50;;
140;SDS011;65;48.778;9.160;2023-04-06T11:38:08;10.52;;;6.60;;
140;SDS011;65;48.778;9.160;2023-04-06T11:40:54;9.25;;;6.40;;
140;SDS011;65;48.778;9.160;2023-04-06T11:43:45;9.77;;;6.65;;
140;SDS011;65;48.778;9.160;2023-04-06T11:46:33;10.15;;;7.10;;
140;SDS011;65;48.778;9.160;2023-04-06T11:49:18;10.50;;;7.35;;
140;SDS011;65;48.778;9.160;2023-04-06T11:52:14;18.02;;;9.98;;
140;SDS011;65;48.778;9.160;2023-04-06T11:55:20;10.48;;;6.70;;
140;SDS011;65;48.778;9.160;2023-04-06T11:58:30;10.23;;;6.20;;
140;SDS011;65;48.778;9.160;2023-04-06T12:01:16;11.23;;;7.10;;
140;SDS011;65;48.778;9.160;2023-04-06T12:07:34;15.90;;;6.78;;
140;SDS011;65;48.778;9.160;2023-04-06T12:10:20;11.13;;;6.88;;
140;SDS011;65;48.778;9.160;2023-04-06T12:13:06;9.50;;;7.05;;
140;SDS011;65;48.778;9.160;2023-04-06T12:16:01;12.13;;;7.60;;
140;SDS011;65;48.778;9.160;2023-04-06T12:18:47;15.82;;;9.38;;
140;SDS011;65;48.778;9.160;2023-04-06T12:21:33;10.35;;;7.25;;
140;SDS011;65;48.778;9.160;2023-04-06T12:24:22;12.88;;;7.30;;
140;SDS011;65;48.778;9.160;2023-04-06T12:27:07;12.30;;;8.00;;
140;SDS011;65;48.778;9.160;2023-04-06T12:29:54;9.05;;;6.53;;
140;SDS011;65;48.778;9.160;2023-04-06T12:32:40;9.02;;;6.28;;
140;SDS011;65;48.778;9.160;2023-04-06T12:35:26;10.50;;;6.78;;
140;SDS011;65;48.778;9.160;2023-04-06T12:38:12;10.10;;;6.20;;
140;SDS011;65;48.778;9.160;2023-04-06T12:40:58;10.48;;;6.10;;
140;SDS011;65;48.778;9.160;2023-04-06T12:43:48;11.27;;;7.30;;
140;SDS011;65;48.778;9.160;2023-04-06T12:46:34;9.68;;;6.45;;
140;SDS011;65;48.778;9.160;2023-04-06T12:49:21;10.23;;;6.65;;
140;SDS011;65;48.778;9.160;2023-04-06T12:52:07;13.60;;;7.07;;
140;SDS011;65;48.778;9.160;2023-04-06T12:54:53;9.40;;;6.88;;
140;SDS011;65;48.778;9.160;2023-04-06T12:57:38;10.38;;;6.88;;
140;SDS011;65;48.778;9.160;2023-04-06T13:00:25;10.82;;;6.55;;
140;SDS011;65;48.778;9.160;2023-04-06T13:03:11;10.38;;;6.43;;
140;SDS011;65;48.778;9.160;2023-04-06T13:05:58;9.18;;;6.25;;
140;SDS011;65;48.778;9.160;2023-04-06T13:08:45;10.48;;;6.47;;
140;SDS011;65;48.778;9.160;2023-04-06T13:11:32;10.68;;;6.47;;
140;SDS011;65;48.778;9.160;2023-04-06T13:14:18;12.15;;;6.70;;
140;SDS011;65;48.778;9.160;2023-04-06T13:17:04;10.18;;;6.05;;
140;SDS011;65;48.778;9.160;2023-04-06T13:19:50;11.48;;;6.60;;
140;SDS011;65;48.778;9.160;2023-04-06T13:22:35;9.63;;;6.18;;
140;SDS011;65;48.778;9.160;2023-04-06T13:25:22;12.68;;;6.95;;
140;SDS011;65;48.778;9.160;2023-04-06T13:28:08;11.50;;;6.85;;
140;SDS011;65;48.778;9.160;2023-04-06T13:30:55;12.23;;;7.07;;
140;SDS011;65;48.778;9.160;2023-04-06T13:36:51;11.02;;;6.63;;
140;SDS011;65;48.778;9.160;2023-04-06T13:39:36;9.98;;;6.20;;
140;SDS011;65;48.778;9.160;2023-04-06T13:42:22;11.02;;;6.55;;
140;SDS011;65;48.778;9.160;2023-04-06T13:45:08;12.68;;;6.57;;
140;SDS011;65;48.778;9.160;2023-04-06T13:47:55;9.23;;;6.20;;
140;SDS011;65;48.778;9.160;2023-04-06T13:50:40;13.50;;;6.57;;
140;SDS011;65;48.778;9.160;2023-04-06T13:53:26;12.50;;;6.90;;
140;SDS011;65;48.778;9.160;2023-04-06T13:56:12;13.52;;;7.40;;
140;SDS011;65;48.778;9.160;2023-04-06T13:58:58;10.05;;;6.55;;
140;SDS011;65;48.778;9.160;2023-04-06T14:01:44;9.45;;;6.47;;
140;SDS011;65;48.778;9.160;2023-04-06T14:04:29;11.35;;;7.07;;
140;SDS011;65;48.778;9.160;2023-04-06T14:07:16;8.90;;;6.20;;
140;SDS011;65;48.778;9.160;2023-04-06T14:10:02;11.68;;;6.72;;
140;SDS011;65;48.778;9.160;2023-04-06T14:12:48;12.40;;;6.78;;
140;SDS011;65;48.778;9.160;2023-04-06T14:15:34;9.07;;;6.03;;
140;SDS011;65;48.778;9.160;2023-04-06T14:18:20;10.82;;;6.68;;
140;SDS011;65;48.778;9.160;2023-04-06T14:21:07;9.77;;;6.30;;
140;SDS011;65;48.778;9.160;2023-04-06T14:23:53;11.93;;;7.30;;
140;SDS011;65;48.778;9.160;2023-04-06T14:26:39;12.02;;;6.50;;
140;SDS011;65;48.778;9.160;2023-04-06T14:29:26;10.38;;;7.07;;
140;SDS011;65;48.778;9.160;2023-04-06T14:32:12;11.93;;;6.82;;
140;SDS011;65;48.778;9.160;2023-04-06T14:34:58;11.43;;;6.55;;
140;SDS011;65;48.778;9.160;2023-04-06T14:37:43;11.48;;;7.25;;
140;SDS011;65;48.778;9.160;2023-04-06T14:40:29;12.23;;;7.13;;
140;SDS011;65;48.778;9.160;2023-04-06T14:43:15;11.43;;;6.40;;
140;SDS011;65;48.778;9.160;2023-04-06T14:46:01;8.75;;;6.07;;
140;SDS011;65;48.778;9.160;2023-04-06T14:48:47;19.65;;;7.90;;
140;SDS011;65;48.778;9.160;2023-04-06T14:51:33;10.20;;;6.45;;
140;SDS011;65;48.778;9.160;2023-04-06T14:54:20;10.35;;;5.90;;
140;SDS011;65;48.778;9.160;2023-04-06T14:57:06;10.77;;;6.40;;
140;SDS011;65;48.778;9.160;2023-04-06T14:59:54;10.60;;;6.40;;
140;SDS011;65;48.778;9.160;2023-04-06T15:02:40;13.63;;;6.63;;
140;SDS011;65;48.778;9.160;2023-04-06T15:05:28;9.73;;;6.35;;
140;SDS011;65;48.778;9.160;2023-04-06T15:11:23;12.40;;;7.80;;
140;SDS011;65;48.778;9.160;2023-04-06T15:14:09;9.77;;;6.15;;
140;SDS011;65;48.778;9.160;2023-04-06T15:16:54;11.85;;;6.97;;
140;SDS011;65;48.778;9.160;2023-04-06T15:19:40;13.13;;;6.75;;
140;SDS011;65;48.778;9.160;2023-04-06T15:22:31;11.00;;;6.20;;
140;SDS011;65;48.778;9.160;2023-04-06T15:25:17;13.70;;;6.45;;
140;SDS011;65;48.778;9.160;2023-04-06T15:28:09;13.05;;;6.63;;
140;SDS011;65;48.778;9.160;2023-04-06T15:30:55;11.93;;;7.07;;
140;SDS011;65;48.778;9.160;2023-04-06T15:33:42;10.95;;;6.57;;
140;SDS011;65;48.778;9.160;2023-04-06T15:36:28;12.10;;;6.00;;
140;SDS011;65;48.778;9.160;2023-04-06T15:39:15;10.77;;;6.72;;
140;SDS011;65;48.778;9.160;2023-04-06T15:42:00;10.45;;;6.35;;
140;SDS011;65;48.778;9.160;2023-04-06T15:44:46;12.98;;;6.18;;
140;SDS011;65;48.778;9.160;2023-04-06T15:47:32;11.45;;;6.85;;
140;SDS011;65;48.778;9.160;2023-04-06T15:50:18;10.55;;;6.93;;
140;SDS011;65;48.778;9.160;2023-04-06T15:53:04;11.30;;;6.28;;
140;SDS011;65;48.778;9.160;2023-04-06T15:55:50;9.80;;;5.95;;
140;SDS011;65;48.778;9.160;2023-04-06T15:58:35;13.57;;;6.70;;
140;SDS011;65;48.778;9.160;2023-04-06T16:01:21;12.68;;;6.43;;
140;SDS011;65;48.778;9.160;2023-04-06T16:04:10;12.73;;;6.10;;
140;SDS011;65;48.778;9.160;2023-04-06T16:06:57;10.57;;;6.30;;
140;SDS011;65;48.778;9.160;2023-04-06T16:09:42;10.70;;;6.80;;
140;SDS011;65;48.778;9.160;2023-04-06T16:12:28;11.55;;;6.05;;
140;SDS011;65;48.778;9.160;2023-04-06T16:15:14;12.15;;;6.30;;
140;SDS011;65;48.778;9.160;2023-04-06T16:18:00;12.07;;;6.90;;
140;SDS011;65;48.778;9.160;2023-04-06T16:20:46;13.07;;;7.20;;
140;SDS011;65;48.778;9.160;2023-04-06T16:23:32;14.82;;;7.55;;
140;SDS011;65;48.778;9.160;2023-04-06T16:26:20;11.43;;;7.65;;
140;SDS011;65;48.778;9.160;2023-04-06T16:29:06;13.13;;;8.25;;
140;SDS011;65;48.778;9.160;2023-04-06T16:31:55;13.88;;;7.53;;
140;SDS011;65;48.778;9.160;2023-04-06T16:34:40;12.38;;;7.85;;
140;SDS011;65;48.778;9.160;2023-04-06T16:37:26;14.48;;;8.63;;
140;SDS011;65;48.778;9.160;2023-04-06T16:40:14;12.93;;;8.20;;
140;SDS011;65;48.778;9.160;2023-04-06T16:43:00;13.73;;;8.30;;
140;SDS011;65;48.778;9.160;2023-04-06T16:45:48;16.15;;;9.43;;
140;SDS011;65;48.778;9.160;2023-04-06T16:48:36;13.93;;;8.38;;
140;SDS011;65;48.778;9.160;2023-04-06T16:51:21;15.73;;;10.07;;
140;SDS011;65;48.778;9.160;2023-04-06T16:54:07;14.57;;;8.88;;
140;SDS011;65;48.778;9.160;2023-04-06T16:56:53;13.27;;;9.40;;
140;SDS011;65;48.778;9.160;2023-04-06T16:59:39;13.70;;;8.55;;
140;SDS011;65;48.778;9.160;2023-04-06T17:02:28;12.27;;;8.00;;
140;SDS011;65;48.778;9.160;2023-04-06T17:05:13;15.00;;;7.85;;
140;SDS011;65;48.778;9.160;2023-04-06T17:07:59;12.95;;;7.68;;
140;SDS011;65;48.778;9.160;2023-04-06T17:10:46;12.93;;;7.60;;
140;SDS011;65;48.778;9.160;2023-04-06T17:13:32;11.07;;;7.18;;
140;SDS011;65;48.778;9.160;2023-04-06T17:16:18;12.13;;;7.07;;
140;SDS011;65;48.778;9.160;2023-04-06T17:19:05;12.15;;;7.22;;
140;SDS011;65;48.778;9.160;2023-04-06T17:21:51;13.60;;;7.03;;
140;SDS011;65;48.778;9.160;2023-04-06T17:24:37;13.20;;;7.38;;
140;SDS011;65;48.778;9.160;2023-04-06T17:27:23;14.75;;;6.53;;
140;SDS011;65;48.778;9.160;2023-04-06T17:30:11;12.10;;;6.15;;
140;SDS011;65;48.778;9.160;2023-04-06T17:32:57;11.15;;;6.28;;
140;SDS011;65;48.778;9.160;2023-04-06T17:35:43;8.88;;;5.38;;
140;SDS011;65;48.778;9.160;2023-04-06T17:38:29;11.40;;;5.82;;
140;SDS011;65;48.778;9.160;2023-04-06T17:41:16;8.98;;;5.57;;
140;SDS011;65;48.778;9.160;2023-04-06T17:44:01;9.93;;;5.60;;
140;SDS011;65;48.778;9.160;2023-04-06T17:46:47;9.70;;;5.53;;
140;SDS011;65;48.778;9.160;2023-04-06T17:49:33;10.23;;;5.60;;
140;SDS011;65;48.778;9.160;2023-04-06T17:52:18;11.43;;;5.75;;
140;SDS011;65;48.778;9.160;2023-04-06T17:55:04;11.48;;;5.90;;
140;SDS011;65;48.778;9.160;2023-04-06T17:57:50;13.00;;;5.70;;
140;SDS011;65;48.778;9.160;2023-04-06T18:00:36;10.18;;;5.68;;
140;SDS011;65;48.778;9.160;2023-04-06T18:03:22;9.63;;;5.57;;
140;SDS011;65;48.778;9.160;2023-04-06T18:06:14;11.55;;;6.07;;
140;SDS011;65;48.778;9.160;2023-04-06T18:09:01;11.15;;;5.88;;